Thursday, August 25, 2016
02:48 UTC
  |  Log In   |  Register Free
Airport Search:

Okmulgee Regional Airport
(KOKM)

Okmulgee Regional Airport Diagram
No Airport Diagram Available

FAA data valid effective Jul 21 2016 - Sep 15 2016 (unless otherwise noted).

 
 
 
 
 
 
 
 
 
 
 
 
 
 
Current Aviation Weather for KOKM

Weather Summary


The most recent METAR observation for OKM was updated at: 12:55 UTC
METAR for OKM is not available. Closest METAR is for
METAR

METAR KOKM 250235Z 15012G19KT 120V190 10SM CLR 28/19 A3003 RMK AO2 T02830190

METAR KOKM 250215Z 16012KT 10SM CLR 29/19 A3002 RMK AO2 T02870190

METAR KOKM 250155Z 10SM CLR 29/19 A3001 RMK AO2 T02890191

METAR KOKM 250135Z 10SM CLR 30/19 A3000 RMK AO2 T02960192

METAR KOKM 250115Z 17013KT 10SM CLR 30/19 A3000 RMK AO2 T03010191

METAR KOKM 250055Z 16011G18KT 10SM CLR 31/19 A2998 RMK AO2 T03070192

METAR KOKM 250035Z 16011G21KT 10SM CLR 32/19 A2998 RMK AO2 T03160193

METAR KOKM 250015Z 17014G21KT 10SM CLR 32/19 A2998 RMK AO2 T03240192

METAR KOKM 242355Z 16015G22KT 10SM CLR 33/19 A2997 RMK AO2 T03310192 10368 20331

METAR KMKO 250153Z 17007KT 10SM CLR 28/19 A3003 RMK AO2 SLP160 T02830189

METAR KOWP 250235Z 17006KT 10SM CLR 31/19 A3002 RMK AO2 LTG DSNT NW T03060190

METAR KRVS 250153Z 17010KT 10SM CLR 31/20 A2998 RMK AO2 SLP155 T03110200

TAF for OKM is not available.
TAF

KRVS - TAF KRVS 242330Z 2500/2524 18010KT P6SM SCT070

KRVS - FM250200 18004KT P6SM SCT250

KRVS - FM251700 18006KT P6SM SCT060 =

KTUL - TAF KTUL 242330Z 2500/2524 18011KT P6SM SCT070

KTUL - FM250200 17008KT P6SM SCT250

KTUL - FM251700 18008KT P6SM SCT060 =

GlobalAir.com is loading additional information.
 Current Weather at OKM
87.0 F° (30.7 C°)

South winds at 12.7 mph
Pressure:
29.98 in
Humidity:
50%
Wind:
South at 12.7 mph
Dew Point:
66.6 F° (19.2 C°)
Visibility:
10.00 mi
OKM NOAA Radar




Find All Airport Services Find A Hotel Find A Rental Car Find A Golf Course Find A Restaurant $100 Hamburger



Airport Weather Forecast for KOKM

Translated METAR for KOKM (0235 UTC)
METAR:
KOKM 250235Z AUTO Okmulgee Regional, Okmulgee, OK (KOKM). Aug 25, 0235Z, Automated. Wind from 150° at 12 knots with gusts to 19 knots variable 120° to 190°, 10 statute miles visibility, Clear Skies, Temperature 28°C, Dewpoint 19°C, Altimeter is 30.03. Remarks: automated station with precipitation discriminator hourly temp 28.3°C dewpoint 19.0°C
Conditions at:
KOKM (Okmulgee Rgnl, OK) observed 0235 UTC 24 August 2016
Temperature:
87.0 F° (30.7 C°)
Dewpoint:
not reported - refer to area weather report
Pressure:
29.98 Hg
Winds:
not reported
gusting to 0 mph (0 knots: 0 m/s)
Visibility:
10.00
Ceiling:
at least 12,000 feet AGL
Clouds:
not reported - refer to area weather report
Remarks:
site is un-manned

Translated TAF for TAF for OKM is not available. Refer to local area forecast.
FBO's on the Field
FBO Company Facility Photos Services Transportation Aviation Fuel Prices: Prices include tax
Catering Weather Repair Courtesy Rental Type 100LL JetA JetA+ MOGAS 8087
 
Okmulgee Regional Airport

This FBO has not yet been rated
FS:Phillips 66
Last Updated: Aug-06
Login to update fuel prices
SS:
Contact Okmulgee Regional AirportMore FBO Information
 
Add another FBO Facility Photos Catering Weather Repair Courtesy Rental Type 100LL JetA JetA+ MOGAS 8087
Services Transportation Aviation Fuel Prices: Prices include tax


model-print
model-print
model-print
model-print